Kemal Ka — TCTM5 — position and weather

sailwx.info

Track history (hours):
 
Tides and Currents Weather Stations Pressure Air Temp Water Temp Dewpoint Dewpoint Depression Visibility Wind Speed Wind Dir Waves Ship Positions

Kemal Ka

Last reported at 2018-Feb-25 18:49 UTC. Time now 2018-Feb-25 20:12 UTC.
Position N 43°30' E 028°56'.

Length 138 m; draft 8.1 m.

Type: Tanker. MMSI: 271002668.

Date/timePositionNaut miles runAvg speedWind from/ knotsBaromVisibWave heightAir tempDewpointWater temp
2018-Feb-25 18:49N 43°30' E 028°56'3 9.5
2018-Feb-25 18:30N 43°33' E 028°56'5 9.6
2018-Feb-25 18:00N 43°38' E 028°56'5 9.6
2018-Feb-25 17:30N 43°43' E 028°55'5 9.7
2018-Feb-25 17:00N 43°47' E 028°55'5 9.9
2018-Feb-25 16:30N 43°52' E 028°54'5 9.6
2018-Feb-25 16:00N 43°57' E 028°54'510.2
2018-Feb-25 15:30N 44°02' E 028°53'5 9.8
2018-Feb-25 15:00N 44°07' E 028°53'4 8.9
2018-Feb-25 14:30N 44°11' E 028°51'5 9.5
2018-Feb-25 14:00N 44°15' E 028°46'5 9.1
2018-Feb-25 13:30N 44°18' E 028°42'2 4.3
2018-Feb-25 13:00N 44°20' E 028°40'0 0.1
2018-Feb-25 12:30N 44°20' E 028°40'0 0.0
2018-Feb-25 12:00N 44°20' E 028°40'0 0.0
2018-Feb-25 11:30N 44°20' E 028°40'0 0.0
2018-Feb-25 11:00N 44°20' E 028°40'0 0.0
2018-Feb-25 10:30N 44°20' E 028°40'0 0.0
2018-Feb-25 10:00N 44°20' E 028°40'0 0.0
2018-Feb-25 09:30N 44°20' E 028°40'0 0.0
2018-Feb-25 09:00N 44°20' E 028°40'0 0.0
2018-Feb-25 08:30N 44°20' E 028°40'0 0.0
2018-Feb-25 08:00N 44°20' E 028°40'0 0.0
2018-Feb-25 07:30N 44°20' E 028°40'0 0.0
2018-Feb-25 07:00N 44°20' E 028°40'0 0.0
2018-Feb-25 06:30N 44°20' E 028°40'0 0.0
2018-Feb-25 06:00N 44°20' E 028°40'0 0.0
2018-Feb-25 05:30N 44°20' E 028°40'0 0.0
2018-Feb-25 05:00N 44°20' E 028°40'0 0.0
2018-Feb-25 04:30N 44°20' E 028°40'0 0.0
2018-Feb-25 04:00N 44°20' E 028°40'0 0.0
2018-Feb-25 03:30N 44°20' E 028°40'0 0.0
2018-Feb-25 03:00N 44°20' E 028°40'0 0.0
2018-Feb-25 02:30N 44°20' E 028°40'0 0.0
2018-Feb-25 02:00N 44°20' E 028°40'0 0.0
2018-Feb-25 01:30N 44°20' E 028°40'0 0.0
2018-Feb-25 01:00N 44°20' E 028°40'0 0.0
2018-Feb-25 00:30N 44°20' E 028°40'0 0.0
2018-Feb-25 00:00N 44°20' E 028°40'0 0.0
2018-Feb-24 23:30N 44°20' E 028°40'0 0.0
2018-Feb-24 23:00N 44°20' E 028°40'0 0.0
2018-Feb-24 22:30N 44°20' E 028°40'0 0.0
2018-Feb-24 22:00N 44°20' E 028°40'0 0.0
2018-Feb-24 21:30N 44°20' E 028°40'0 0.0
2018-Feb-24 21:00N 44°20' E 028°40'0 0.0
2018-Feb-24 20:30N 44°20' E 028°40'0 0.0
2018-Feb-24 20:00N 44°20' E 028°40'0 0.0
2018-Feb-24 19:30N 44°20' E 028°40'0 0.0
2018-Feb-24 19:00N 44°20' E 028°40'0 0.0
2018-Feb-24 18:30N 44°20' E 028°40'0 0.0
2018-Feb-24 18:00N 44°20' E 028°40'0 0.0
2018-Feb-24 17:30N 44°20' E 028°40'0 0.0
2018-Feb-24 16:57N 44°20' E 028°40'0 0.0
2018-Feb-24 16:30N 44°20' E 028°40'0 0.0
2018-Feb-24 16:00N 44°20' E 028°40'0 0.0
2018-Feb-24 15:27N 44°20' E 028°40'0 0.0
2018-Feb-24 15:00N 44°20' E 028°40'0 0.0
2018-Feb-24 14:27N 44°20' E 028°40'0 0.0
2018-Feb-24 14:00N 44°20' E 028°40'0 0.0
2018-Feb-24 13:30N 44°20' E 028°40'0 0.0
2018-Feb-24 13:00N 44°20' E 028°40'0 0.0
2018-Feb-24 12:30N 44°20' E 028°40'0 0.0
2018-Feb-24 12:00N 44°20' E 028°40'0 0.0
2018-Feb-24 11:30N 44°20' E 028°40'0 0.0
2018-Feb-24 11:00N 44°20' E 028°40'0 0.0
2018-Feb-24 10:30N 44°20' E 028°40'0 0.0
2018-Feb-24 10:00N 44°20' E 028°40'0 0.0
2018-Feb-24 09:30N 44°20' E 028°40'0 0.0
2018-Feb-24 09:00N 44°20' E 028°40'0 0.0
2018-Feb-24 08:30N 44°20' E 028°40'0 0.0
2018-Feb-24 08:00N 44°20' E 028°40'0 0.0
2018-Feb-24 07:30N 44°20' E 028°40'0 0.0
2018-Feb-24 07:00N 44°20' E 028°40'0 0.0
2018-Feb-24 06:30N 44°20' E 028°40'0 0.0
2018-Feb-24 06:00N 44°20' E 028°40'0 0.0
2018-Feb-24 05:27N 44°20' E 028°40'0 0.0
2018-Feb-24 05:00N 44°20' E 028°40'0 0.0
2018-Feb-24 04:30N 44°20' E 028°40'0 0.0
2018-Feb-24 04:00N 44°20' E 028°40'0 0.0
2018-Feb-24 03:30N 44°20' E 028°40'0 0.0
2018-Feb-24 03:00N 44°20' E 028°40'0 0.0
2018-Feb-24 02:30N 44°20' E 028°40'0 0.0
2018-Feb-24 02:00N 44°20' E 028°40'0 0.0
2018-Feb-24 01:30N 44°20' E 028°40'0 0.0
2018-Feb-24 00:57N 44°20' E 028°40'0 0.0
2018-Feb-24 00:30N 44°20' E 028°40'0 0.0
2018-Feb-24 00:00N 44°20' E 028°40'0 0.0
2018-Feb-23 23:30N 44°20' E 028°40'0 0.0
2018-Feb-23 23:00N 44°20' E 028°40'0 0.0
2018-Feb-23 22:27N 44°20' E 028°40'0 0.0
2018-Feb-23 22:00N 44°20' E 028°40'0 0.0
2018-Feb-23 21:30N 44°20' E 028°40'0 0.0
2018-Feb-23 21:00N 44°20' E 028°40'0 0.0
2018-Feb-23 20:30N 44°20' E 028°40'0 0.0
2018-Feb-23 20:00N 44°20' E 028°40'0 0.0
2018-Feb-23 19:30N 44°20' E 028°40'0 0.0
2018-Feb-23 19:00N 44°20' E 028°40'0 0.0
2018-Feb-23 18:27N 44°20' E 028°40'0 0.0
2018-Feb-23 18:00N 44°20' E 028°40'0 0.0
2018-Feb-23 17:27N 44°20' E 028°40'0 0.0
2018-Feb-23 17:00N 44°20' E 028°40'0 0.0
2018-Feb-23 16:30N 44°20' E 028°40'0 0.0
2018-Feb-23 16:00N 44°20' E 028°40'0 0.0
2018-Feb-23 15:30N 44°20' E 028°40'0 0.0
2018-Feb-23 15:00N 44°20' E 028°40'0 0.0
2018-Feb-23 14:30N 44°20' E 028°40'0 0.0
2018-Feb-23 14:00N 44°20' E 028°40'0 0.0
2018-Feb-23 13:30N 44°20' E 028°40'0 0.0
2018-Feb-23 13:00N 44°20' E 028°40'0 0.0
2018-Feb-23 12:30N 44°20' E 028°40'0 0.0
2018-Feb-23 12:00N 44°20' E 028°40'0 0.0
2018-Feb-23 11:30N 44°20' E 028°40'0 0.0
2018-Feb-23 11:00N 44°20' E 028°40'0 0.0
2018-Feb-23 10:30N 44°20' E 028°40'0 0.0
2018-Feb-23 10:00N 44°20' E 028°40'0 0.0
2018-Feb-23 09:30N 44°20' E 028°40'0 0.0
2018-Feb-23 09:00N 44°20' E 028°40'0 0.0
2018-Feb-23 08:30N 44°20' E 028°40'0 0.0
2018-Feb-23 08:00N 44°20' E 028°40'0 0.0
2018-Feb-23 07:30N 44°20' E 028°40'0 0.5
2018-Feb-23 07:00N 44°20' E 028°41'3 5.5
2018-Feb-23 06:30N 44°18' E 028°43'3 5.7
2018-Feb-23 06:00N 44°15' E 028°45'0 0.8
2018-Feb-23 05:30N 44°15' E 028°46'1 2.7
2018-Feb-23 05:00N 44°14' E 028°45'0 0.6
2018-Feb-23 04:30N 44°14' E 028°45'1 2.4
2018-Feb-23 04:00N 44°15' E 028°46'3 6.2
2018-Feb-23 03:30N 44°13' E 028°49'4 8.6
2018-Feb-23 03:00N 44°10' E 028°54'5 9.0
2018-Feb-23 02:30N 44°09' E 028°60'4 9.0
2018-Feb-23 02:00N 44°07' E 029°06'5 9.2
2018-Feb-23 01:30N 44°05' E 029°11'5 9.4
2018-Feb-23 01:00N 44°03' E 029°17'5 9.8
2018-Feb-23 00:30N 44°01' E 029°23'5 9.8
2018-Feb-23 00:00N 43°59' E 029°30'  
2018-Feb-19 03:08N 43°39' E 038°43'2 9.8
2018-Feb-19 02:56N 43°41' E 038°44'410.0
2018-Feb-19 02:29N 43°45' E 038°48'510.0
2018-Feb-19 02:00N 43°48' E 038°52'510.0
2018-Feb-19 01:30N 43°52' E 038°56'5 9.9
2018-Feb-19 01:00N 43°56' E 038°60'5 9.5
2018-Feb-19 00:30N 44°01' E 039°03'4 8.9
2018-Feb-19 00:00N 44°05' E 039°04'1 1.5
2018-Feb-18 23:30N 44°05' E 039°05'0 0.0
2018-Feb-18 23:00N 44°05' E 039°05'0 0.0
2018-Feb-18 22:30N 44°05' E 039°05'0 0.0
2018-Feb-18 22:00N 44°05' E 039°05'0 0.0
2018-Feb-18 21:30N 44°05' E 039°05'0 0.0
2018-Feb-18 21:00N 44°05' E 039°05'0 0.0
2018-Feb-18 20:30N 44°05' E 039°05'0 0.0
2018-Feb-18 20:00N 44°05' E 039°05'0 0.0
2018-Feb-18 19:30N 44°05' E 039°05'0 0.0
2018-Feb-18 19:00N 44°05' E 039°05'0 0.0
2018-Feb-18 18:30N 44°05' E 039°05'0 0.0
2018-Feb-18 18:00N 44°05' E 039°05'0 0.0
2018-Feb-18 17:30N 44°05' E 039°05'0 0.0
2018-Feb-18 17:00N 44°05' E 039°05'0 0.0
2018-Feb-18 16:30N 44°05' E 039°05'0 0.0
2018-Feb-18 16:00N 44°05' E 039°05'0 0.0
2018-Feb-18 15:30N 44°05' E 039°05'0 0.0
2018-Feb-18 15:00N 44°05' E 039°05'0 0.0
2018-Feb-18 14:30N 44°05' E 039°05'0 0.0
2018-Feb-18 14:00N 44°05' E 039°05'0 0.0
2018-Feb-18 13:30N 44°05' E 039°05'0 0.0
2018-Feb-18 13:00N 44°05' E 039°05'0 0.0
2018-Feb-18 12:30N 44°05' E 039°05'0 0.0
2018-Feb-18 12:00N 44°05' E 039°05'0 0.0
2018-Feb-18 11:30N 44°05' E 039°05'0 0.0
2018-Feb-18 11:00N 44°05' E 039°05'0 0.0
2018-Feb-18 10:30N 44°05' E 039°05'0 0.0
2018-Feb-18 10:00N 44°05' E 039°05'0 0.0
2018-Feb-18 09:30N 44°05' E 039°05'0 0.0
2018-Feb-18 09:00N 44°05' E 039°05'0 0.0
2018-Feb-18 08:30N 44°05' E 039°05'0 0.0
2018-Feb-18 08:00N 44°05' E 039°05'0 0.0
2018-Feb-18 07:30N 44°05' E 039°05'0 0.0
2018-Feb-18 07:00N 44°05' E 039°05'0 0.0
2018-Feb-18 06:30N 44°05' E 039°05'0 0.0
2018-Feb-18 06:00N 44°05' E 039°05'0 0.0
2018-Feb-18 05:30N 44°05' E 039°05'0 0.0
2018-Feb-18 05:00N 44°05' E 039°05'0 0.0
2018-Feb-18 04:30N 44°05' E 039°05'0 0.0
2018-Feb-18 04:00N 44°05' E 039°05'0 0.0
2018-Feb-18 03:30N 44°05' E 039°05'0 0.0
2018-Feb-18 03:00N 44°05' E 039°05'0 0.0
2018-Feb-18 02:30N 44°05' E 039°05'0 0.0
2018-Feb-18 02:00N 44°05' E 039°05'0 0.0
2018-Feb-18 01:30N 44°05' E 039°05'0 0.0
2018-Feb-18 01:00N 44°05' E 039°05'0 0.0
2018-Feb-18 00:30N 44°05' E 039°05'0 0.0
2018-Feb-18 00:00N 44°05' E 039°05'0 0.0
2018-Feb-17 23:30N 44°05' E 039°05'0 0.0
2018-Feb-17 23:00N 44°05' E 039°05'0 0.0
2018-Feb-17 22:30N 44°05' E 039°05'0 0.0
2018-Feb-17 22:00N 44°05' E 039°05'0 0.0
2018-Feb-17 21:30N 44°05' E 039°05'0 0.0
2018-Feb-17 21:00N 44°05' E 039°05'0 0.0
2018-Feb-17 20:30N 44°05' E 039°05'0 0.0
2018-Feb-17 20:00N 44°05' E 039°05'0 0.0
2018-Feb-17 19:30N 44°05' E 039°05'0 0.0
2018-Feb-17 19:00N 44°05' E 039°05'0 0.0
2018-Feb-17 18:30N 44°05' E 039°05'0 0.0
2018-Feb-17 18:00N 44°05' E 039°05'0 0.0
2018-Feb-17 17:30N 44°05' E 039°05'0 0.0
2018-Feb-17 17:00N 44°05' E 039°05'0 0.0
2018-Feb-17 16:30N 44°05' E 039°05'0 0.0
2018-Feb-17 16:00N 44°05' E 039°05'0 0.0
2018-Feb-17 15:30N 44°05' E 039°05'0 0.0
2018-Feb-17 15:00N 44°05' E 039°05'0 0.0
2018-Feb-17 14:30N 44°05' E 039°05'0 0.0
2018-Feb-17 14:00N 44°05' E 039°05'1 2.1
2018-Feb-17 13:30N 44°05' E 039°04'2 4.0
2018-Feb-17 13:00N 44°03' E 039°06'0 0.1
2018-Feb-17 12:30N 44°03' E 039°06'0 0.0
2018-Feb-17 12:00N 44°03' E 039°06'0 0.0
2018-Feb-17 11:30N 44°03' E 039°06'0 0.0
2018-Feb-17 11:00N 44°03' E 039°06'0 0.0
2018-Feb-17 10:30N 44°03' E 039°06'0 0.0
2018-Feb-17 10:00N 44°03' E 039°06'0 0.0
2018-Feb-17 09:30N 44°03' E 039°06'0 0.0
2018-Feb-17 09:00N 44°03' E 039°06'0 0.0
2018-Feb-17 08:30N 44°03' E 039°06'0 0.0
2018-Feb-17 08:00N 44°03' E 039°06'0 0.0
2018-Feb-17 07:30N 44°03' E 039°06'0 0.0
2018-Feb-17 07:00N 44°03' E 039°06'0 0.0
2018-Feb-17 06:30N 44°03' E 039°06'0 0.1
2018-Feb-17 06:01N 44°03' E 039°06'0 0.0
2018-Feb-17 05:28N 44°03' E 039°06'0 0.0
2018-Feb-17 04:58N 44°03' E 039°06'0 0.0
2018-Feb-17 04:28N 44°03' E 039°06'0 0.0
2018-Feb-17 03:58N 44°03' E 039°06'0 0.0
2018-Feb-17 03:28N 44°03' E 039°06'0 0.0
2018-Feb-17 02:58N 44°03' E 039°06'0 0.0
2018-Feb-17 02:28N 44°03' E 039°06'0 0.0
2018-Feb-17 01:58N 44°03' E 039°06'0 0.0
2018-Feb-17 01:28N 44°03' E 039°06'0 0.0
2018-Feb-17 00:58N 44°03' E 039°06'0 0.0
2018-Feb-17 00:28N 44°03' E 039°06'0 0.0
2018-Feb-16 23:58N 44°03' E 039°06'0 0.0
2018-Feb-16 23:28N 44°03' E 039°06'0 0.0
2018-Feb-16 22:58N 44°03' E 039°06'0 0.0
2018-Feb-16 22:28N 44°03' E 039°06'0 0.0
2018-Feb-16 21:58N 44°03' E 039°06'0 0.0
2018-Feb-16 21:28N 44°03' E 039°06'0 0.0
2018-Feb-16 20:58N 44°03' E 039°06'0 0.0
2018-Feb-16 20:28N 44°03' E 039°06'0 0.0
2018-Feb-16 19:58N 44°03' E 039°06'0 0.0
2018-Feb-16 19:28N 44°03' E 039°06'0 0.0
2018-Feb-16 18:58N 44°03' E 039°06'0 0.0
2018-Feb-16 18:28N 44°03' E 039°06'0 0.0
2018-Feb-16 17:58N 44°03' E 039°06'0 0.0
2018-Feb-16 17:28N 44°03' E 039°06'0 0.0
2018-Feb-16 16:58N 44°03' E 039°06'0 0.0
2018-Feb-16 16:25N 44°03' E 039°06'0 0.0
2018-Feb-16 15:58N 44°03' E 039°06'0 0.0
2018-Feb-16 15:28N 44°03' E 039°06'0 0.0
2018-Feb-16 14:58N 44°03' E 039°06'0 0.0
2018-Feb-16 14:28N 44°03' E 039°06'0 0.0
2018-Feb-16 13:58N 44°03' E 039°06'0 0.0
2018-Feb-16 13:28N 44°03' E 039°06'0 0.0
2018-Feb-16 12:58N 44°03' E 039°06'0 0.0
2018-Feb-16 12:28N 44°03' E 039°06'0 0.0
2018-Feb-16 11:58N 44°03' E 039°06'0 0.0
2018-Feb-16 11:28N 44°03' E 039°06'0 0.2
2018-Feb-16 10:58N 44°03' E 039°06'0 0.1
2018-Feb-16 10:28N 44°03' E 039°06'0 0.2
2018-Feb-16 09:58N 44°03' E 039°06'0 0.2
2018-Feb-16 09:28N 44°03' E 039°06'0 0.0
2018-Feb-16 08:58N 44°03' E 039°06'0 0.0
2018-Feb-16 08:28N 44°03' E 039°06'0 0.0
2018-Feb-16 07:58N 44°03' E 039°06'0 0.0
2018-Feb-16 07:28N 44°03' E 039°06'0 0.0
2018-Feb-16 06:58N 44°03' E 039°06'0 0.0
2018-Feb-16 06:28N 44°03' E 039°06'0 0.0
2018-Feb-16 05:58N 44°03' E 039°06'0 0.0
2018-Feb-16 05:28N 44°03' E 039°06'0 0.0
2018-Feb-16 04:52N 44°03' E 039°06'0 0.0
2018-Feb-16 04:28N 44°03' E 039°06'0 0.0
2018-Feb-16 03:58N 44°03' E 039°06'0 0.0
2018-Feb-16 03:28N 44°03' E 039°06'0 0.0
2018-Feb-16 02:58N 44°03' E 039°06'0 0.0
2018-Feb-16 02:28N 44°03' E 039°06'0 0.0
2018-Feb-16 01:58N 44°03' E 039°06'0 0.0
2018-Feb-16 01:28N 44°03' E 039°06'0 0.0
2018-Feb-16 00:58N 44°03' E 039°06'0 0.0
2018-Feb-16 00:28N 44°03' E 039°06'0 0.0
2018-Feb-15 23:58N 44°03' E 039°06'0 0.0
2018-Feb-15 23:28N 44°03' E 039°06'0 0.0
2018-Feb-15 22:58N 44°03' E 039°06'0 0.0
2018-Feb-15 22:28N 44°03' E 039°06'0 0.0
2018-Feb-15 21:58N 44°03' E 039°06'0 0.0
2018-Feb-15 21:28N 44°03' E 039°06'0 0.0
2018-Feb-15 20:58N 44°03' E 039°06'0 0.0
2018-Feb-15 20:28N 44°03' E 039°06'0 0.0
2018-Feb-15 19:58N 44°03' E 039°06'0 0.0
2018-Feb-15 19:28N 44°03' E 039°06'0 0.0
2018-Feb-15 18:58N 44°03' E 039°06'  
Track history (hours):
 
Tides and Currents Weather Stations Pressure Air Temp Water Temp Dewpoint Dewpoint Depression Visibility Wind Speed Wind Dir Waves Ship Positions

Kemal Ka

Last reported at 2018-Feb-25 18:49 UTC. Time now 2018-Feb-25 20:12 UTC.
Position N 43°30' E 028°56'.

Length 138 m; draft 8.1 m.

Type: Tanker. MMSI: 271002668.

Date/timePositionNaut miles runAvg speedWind from/ knotsBaromVisibWave heightAir tempDewpointWater temp
2018-Feb-25 18:49N 43°30' E 028°56'3 9.5
2018-Feb-25 18:30N 43°33' E 028°56'5 9.6
2018-Feb-25 18:00N 43°38' E 028°56'5 9.6
2018-Feb-25 17:30N 43°43' E 028°55'5 9.7
2018-Feb-25 17:00N 43°47' E 028°55'5 9.9
2018-Feb-25 16:30N 43°52' E 028°54'5 9.6
2018-Feb-25 16:00N 43°57' E 028°54'510.2
2018-Feb-25 15:30N 44°02' E 028°53'5 9.8
2018-Feb-25 15:00N 44°07' E 028°53'4 8.9
2018-Feb-25 14:30N 44°11' E 028°51'5 9.5
2018-Feb-25 14:00N 44°15' E 028°46'5 9.1
2018-Feb-25 13:30N 44°18' E 028°42'2 4.3
2018-Feb-25 13:00N 44°20' E 028°40'0 0.1
2018-Feb-25 12:30N 44°20' E 028°40'0 0.0
2018-Feb-25 12:00N 44°20' E 028°40'0 0.0
2018-Feb-25 11:30N 44°20' E 028°40'0 0.0
2018-Feb-25 11:00N 44°20' E 028°40'0 0.0
2018-Feb-25 10:30N 44°20' E 028°40'0 0.0
2018-Feb-25 10:00N 44°20' E 028°40'0 0.0
2018-Feb-25 09:30N 44°20' E 028°40'0 0.0
2018-Feb-25 09:00N 44°20' E 028°40'0 0.0
2018-Feb-25 08:30N 44°20' E 028°40'0 0.0
2018-Feb-25 08:00N 44°20' E 028°40'0 0.0
2018-Feb-25 07:30N 44°20' E 028°40'0 0.0
2018-Feb-25 07:00N 44°20' E 028°40'0 0.0
2018-Feb-25 06:30N 44°20' E 028°40'0 0.0
2018-Feb-25 06:00N 44°20' E 028°40'0 0.0
2018-Feb-25 05:30N 44°20' E 028°40'0 0.0
2018-Feb-25 05:00N 44°20' E 028°40'0 0.0
2018-Feb-25 04:30N 44°20' E 028°40'0 0.0
2018-Feb-25 04:00N 44°20' E 028°40'0 0.0
2018-Feb-25 03:30N 44°20' E 028°40'0 0.0
2018-Feb-25 03:00N 44°20' E 028°40'0 0.0
2018-Feb-25 02:30N 44°20' E 028°40'0 0.0
2018-Feb-25 02:00N 44°20' E 028°40'0 0.0
2018-Feb-25 01:30N 44°20' E 028°40'0 0.0
2018-Feb-25 01:00N 44°20' E 028°40'0 0.0
2018-Feb-25 00:30N 44°20' E 028°40'0 0.0
2018-Feb-25 00:00N 44°20' E 028°40'0 0.0
2018-Feb-24 23:30N 44°20' E 028°40'0 0.0
2018-Feb-24 23:00N 44°20' E 028°40'0 0.0
2018-Feb-24 22:30N 44°20' E 028°40'0 0.0
2018-Feb-24 22:00N 44°20' E 028°40'0 0.0
2018-Feb-24 21:30N 44°20' E 028°40'0 0.0
2018-Feb-24 21:00N 44°20' E 028°40'0 0.0
2018-Feb-24 20:30N 44°20' E 028°40'0 0.0
2018-Feb-24 20:00N 44°20' E 028°40'0 0.0
2018-Feb-24 19:30N 44°20' E 028°40'0 0.0
2018-Feb-24 19:00N 44°20' E 028°40'0 0.0
2018-Feb-24 18:30N 44°20' E 028°40'0 0.0
2018-Feb-24 18:00N 44°20' E 028°40'0 0.0
2018-Feb-24 17:30N 44°20' E 028°40'0 0.0
2018-Feb-24 16:57N 44°20' E 028°40'0 0.0
2018-Feb-24 16:30N 44°20' E 028°40'0 0.0
2018-Feb-24 16:00N 44°20' E 028°40'0 0.0
2018-Feb-24 15:27N 44°20' E 028°40'0 0.0
2018-Feb-24 15:00N 44°20' E 028°40'0 0.0
2018-Feb-24 14:27N 44°20' E 028°40'0 0.0
2018-Feb-24 14:00N 44°20' E 028°40'0 0.0
2018-Feb-24 13:30N 44°20' E 028°40'0 0.0
2018-Feb-24 13:00N 44°20' E 028°40'0 0.0
2018-Feb-24 12:30N 44°20' E 028°40'0 0.0
2018-Feb-24 12:00N 44°20' E 028°40'0 0.0
2018-Feb-24 11:30N 44°20' E 028°40'0 0.0
2018-Feb-24 11:00N 44°20' E 028°40'0 0.0
2018-Feb-24 10:30N 44°20' E 028°40'0 0.0
2018-Feb-24 10:00N 44°20' E 028°40'0 0.0
2018-Feb-24 09:30N 44°20' E 028°40'0 0.0
2018-Feb-24 09:00N 44°20' E 028°40'0 0.0
2018-Feb-24 08:30N 44°20' E 028°40'0 0.0
2018-Feb-24 08:00N 44°20' E 028°40'0 0.0
2018-Feb-24 07:30N 44°20' E 028°40'0 0.0
2018-Feb-24 07:00N 44°20' E 028°40'0 0.0
2018-Feb-24 06:30N 44°20' E 028°40'0 0.0
2018-Feb-24 06:00N 44°20' E 028°40'0 0.0
2018-Feb-24 05:27N 44°20' E 028°40'0 0.0
2018-Feb-24 05:00N 44°20' E 028°40'0 0.0
2018-Feb-24 04:30N 44°20' E 028°40'0 0.0
2018-Feb-24 04:00N 44°20' E 028°40'0 0.0
2018-Feb-24 03:30N 44°20' E 028°40'0 0.0
2018-Feb-24 03:00N 44°20' E 028°40'0 0.0
2018-Feb-24 02:30N 44°20' E 028°40'0 0.0
2018-Feb-24 02:00N 44°20' E 028°40'0 0.0
2018-Feb-24 01:30N 44°20' E 028°40'0 0.0
2018-Feb-24 00:57N 44°20' E 028°40'0 0.0
2018-Feb-24 00:30N 44°20' E 028°40'0 0.0
2018-Feb-24 00:00N 44°20' E 028°40'0 0.0
2018-Feb-23 23:30N 44°20' E 028°40'0 0.0
2018-Feb-23 23:00N 44°20' E 028°40'0 0.0
2018-Feb-23 22:27N 44°20' E 028°40'0 0.0
2018-Feb-23 22:00N 44°20' E 028°40'0 0.0
2018-Feb-23 21:30N 44°20' E 028°40'0 0.0
2018-Feb-23 21:00N 44°20' E 028°40'0 0.0
2018-Feb-23 20:30N 44°20' E 028°40'0 0.0
2018-Feb-23 20:00N 44°20' E 028°40'0 0.0
2018-Feb-23 19:30N 44°20' E 028°40'0 0.0
2018-Feb-23 19:00N 44°20' E 028°40'0 0.0
2018-Feb-23 18:27N 44°20' E 028°40'0 0.0
2018-Feb-23 18:00N 44°20' E 028°40'0 0.0
2018-Feb-23 17:27N 44°20' E 028°40'0 0.0
2018-Feb-23 17:00N 44°20' E 028°40'0 0.0
2018-Feb-23 16:30N 44°20' E 028°40'0 0.0
2018-Feb-23 16:00N 44°20' E 028°40'0 0.0
2018-Feb-23 15:30N 44°20' E 028°40'0 0.0
2018-Feb-23 15:00N 44°20' E 028°40'0 0.0
2018-Feb-23 14:30N 44°20' E 028°40'0 0.0
2018-Feb-23 14:00N 44°20' E 028°40'0 0.0
2018-Feb-23 13:30N 44°20' E 028°40'0 0.0
2018-Feb-23 13:00N 44°20' E 028°40'0 0.0
2018-Feb-23 12:30N 44°20' E 028°40'0 0.0
2018-Feb-23 12:00N 44°20' E 028°40'0 0.0
2018-Feb-23 11:30N 44°20' E 028°40'0 0.0
2018-Feb-23 11:00N 44°20' E 028°40'0 0.0
2018-Feb-23 10:30N 44°20' E 028°40'0 0.0
2018-Feb-23 10:00N 44°20' E 028°40'0 0.0
2018-Feb-23 09:30N 44°20' E 028°40'0 0.0
2018-Feb-23 09:00N 44°20' E 028°40'0 0.0
2018-Feb-23 08:30N 44°20' E 028°40'0 0.0
2018-Feb-23 08:00N 44°20' E 028°40'0 0.0
2018-Feb-23 07:30N 44°20' E 028°40'0 0.5
2018-Feb-23 07:00N 44°20' E 028°41'3 5.5
2018-Feb-23 06:30N 44°18' E 028°43'3 5.7
2018-Feb-23 06:00N 44°15' E 028°45'0 0.8
2018-Feb-23 05:30N 44°15' E 028°46'1 2.7
2018-Feb-23 05:00N 44°14' E 028°45'0 0.6
2018-Feb-23 04:30N 44°14' E 028°45'1 2.4
2018-Feb-23 04:00N 44°15' E 028°46'3 6.2
2018-Feb-23 03:30N 44°13' E 028°49'4 8.6
2018-Feb-23 03:00N 44°10' E 028°54'5 9.0
2018-Feb-23 02:30N 44°09' E 028°60'4 9.0
2018-Feb-23 02:00N 44°07' E 029°06'5 9.2
2018-Feb-23 01:30N 44°05' E 029°11'5 9.4
2018-Feb-23 01:00N 44°03' E 029°17'5 9.8
2018-Feb-23 00:30N 44°01' E 029°23'5 9.8
2018-Feb-23 00:00N 43°59' E 029°30'  
2018-Feb-19 03:08N 43°39' E 038°43'2 9.8
2018-Feb-19 02:56N 43°41' E 038°44'410.0
2018-Feb-19 02:29N 43°45' E 038°48'510.0
2018-Feb-19 02:00N 43°48' E 038°52'510.0
2018-Feb-19 01:30N 43°52' E 038°56'5 9.9
2018-Feb-19 01:00N 43°56' E 038°60'5 9.5
2018-Feb-19 00:30N 44°01' E 039°03'4 8.9
2018-Feb-19 00:00N 44°05' E 039°04'1 1.5
2018-Feb-18 23:30N 44°05' E 039°05'0 0.0
2018-Feb-18 23:00N 44°05' E 039°05'0 0.0
2018-Feb-18 22:30N 44°05' E 039°05'0 0.0
2018-Feb-18 22:00N 44°05' E 039°05'0 0.0
2018-Feb-18 21:30N 44°05' E 039°05'0 0.0
2018-Feb-18 21:00N 44°05' E 039°05'0 0.0
2018-Feb-18 20:30N 44°05' E 039°05'0 0.0
2018-Feb-18 20:00N 44°05' E 039°05'0 0.0
2018-Feb-18 19:30N 44°05' E 039°05'0 0.0
2018-Feb-18 19:00N 44°05' E 039°05'0 0.0
2018-Feb-18 18:30N 44°05' E 039°05'0 0.0
2018-Feb-18 18:00N 44°05' E 039°05'0 0.0
2018-Feb-18 17:30N 44°05' E 039°05'0 0.0
2018-Feb-18 17:00N 44°05' E 039°05'0 0.0
2018-Feb-18 16:30N 44°05' E 039°05'0 0.0
2018-Feb-18 16:00N 44°05' E 039°05'0 0.0
2018-Feb-18 15:30N 44°05' E 039°05'0 0.0
2018-Feb-18 15:00N 44°05' E 039°05'0 0.0
2018-Feb-18 14:30N 44°05' E 039°05'0 0.0
2018-Feb-18 14:00N 44°05' E 039°05'0 0.0
2018-Feb-18 13:30N 44°05' E 039°05'0 0.0
2018-Feb-18 13:00N 44°05' E 039°05'0 0.0
2018-Feb-18 12:30N 44°05' E 039°05'0 0.0
2018-Feb-18 12:00N 44°05' E 039°05'0 0.0
2018-Feb-18 11:30N 44°05' E 039°05'0 0.0
2018-Feb-18 11:00N 44°05' E 039°05'0 0.0
2018-Feb-18 10:30N 44°05' E 039°05'0 0.0
2018-Feb-18 10:00N 44°05' E 039°05'0 0.0
2018-Feb-18 09:30N 44°05' E 039°05'0 0.0
2018-Feb-18 09:00N 44°05' E 039°05'0 0.0
2018-Feb-18 08:30N 44°05' E 039°05'0 0.0
2018-Feb-18 08:00N 44°05' E 039°05'0 0.0
2018-Feb-18 07:30N 44°05' E 039°05'0 0.0
2018-Feb-18 07:00N 44°05' E 039°05'0 0.0
2018-Feb-18 06:30N 44°05' E 039°05'0 0.0
2018-Feb-18 06:00N 44°05' E 039°05'0 0.0
2018-Feb-18 05:30N 44°05' E 039°05'0 0.0
2018-Feb-18 05:00N 44°05' E 039°05'0 0.0
2018-Feb-18 04:30N 44°05' E 039°05'0 0.0
2018-Feb-18 04:00N 44°05' E 039°05'0 0.0
2018-Feb-18 03:30N 44°05' E 039°05'0 0.0
2018-Feb-18 03:00N 44°05' E 039°05'0 0.0
2018-Feb-18 02:30N 44°05' E 039°05'0 0.0
2018-Feb-18 02:00N 44°05' E 039°05'0 0.0
2018-Feb-18 01:30N 44°05' E 039°05'0 0.0
2018-Feb-18 01:00N 44°05' E 039°05'0 0.0
2018-Feb-18 00:30N 44°05' E 039°05'0 0.0
2018-Feb-18 00:00N 44°05' E 039°05'0 0.0
2018-Feb-17 23:30N 44°05' E 039°05'0 0.0
2018-Feb-17 23:00N 44°05' E 039°05'0 0.0
2018-Feb-17 22:30N 44°05' E 039°05'0 0.0
2018-Feb-17 22:00N 44°05' E 039°05'0 0.0
2018-Feb-17 21:30N 44°05' E 039°05'0 0.0
2018-Feb-17 21:00N 44°05' E 039°05'0 0.0
2018-Feb-17 20:30N 44°05' E 039°05'0 0.0
2018-Feb-17 20:00N 44°05' E 039°05'0 0.0
2018-Feb-17 19:30N 44°05' E 039°05'0 0.0
2018-Feb-17 19:00N 44°05' E 039°05'0 0.0
2018-Feb-17 18:30N 44°05' E 039°05'0 0.0
2018-Feb-17 18:00N 44°05' E 039°05'0 0.0
2018-Feb-17 17:30N 44°05' E 039°05'0 0.0
2018-Feb-17 17:00N 44°05' E 039°05'0 0.0
2018-Feb-17 16:30N 44°05' E 039°05'0 0.0
2018-Feb-17 16:00N 44°05' E 039°05'0 0.0
2018-Feb-17 15:30N 44°05' E 039°05'0 0.0
2018-Feb-17 15:00N 44°05' E 039°05'0 0.0
2018-Feb-17 14:30N 44°05' E 039°05'0 0.0
2018-Feb-17 14:00N 44°05' E 039°05'1 2.1
2018-Feb-17 13:30N 44°05' E 039°04'2 4.0
2018-Feb-17 13:00N 44°03' E 039°06'0 0.1
2018-Feb-17 12:30N 44°03' E 039°06'0 0.0
2018-Feb-17 12:00N 44°03' E 039°06'0 0.0
2018-Feb-17 11:30N 44°03' E 039°06'0 0.0
2018-Feb-17 11:00N 44°03' E 039°06'0 0.0
2018-Feb-17 10:30N 44°03' E 039°06'0 0.0
2018-Feb-17 10:00N 44°03' E 039°06'0 0.0
2018-Feb-17 09:30N 44°03' E 039°06'0 0.0
2018-Feb-17 09:00N 44°03' E 039°06'0 0.0
2018-Feb-17 08:30N 44°03' E 039°06'0 0.0
2018-Feb-17 08:00N 44°03' E 039°06'0 0.0
2018-Feb-17 07:30N 44°03' E 039°06'0 0.0
2018-Feb-17 07:00N 44°03' E 039°06'0 0.0
2018-Feb-17 06:30N 44°03' E 039°06'0 0.1
2018-Feb-17 06:01N 44°03' E 039°06'0 0.0
2018-Feb-17 05:28N 44°03' E 039°06'0 0.0
2018-Feb-17 04:58N 44°03' E 039°06'0 0.0
2018-Feb-17 04:28N 44°03' E 039°06'0 0.0
2018-Feb-17 03:58N 44°03' E 039°06'0 0.0
2018-Feb-17 03:28N 44°03' E 039°06'0 0.0
2018-Feb-17 02:58N 44°03' E 039°06'0 0.0
2018-Feb-17 02:28N 44°03' E 039°06'0 0.0
2018-Feb-17 01:58N 44°03' E 039°06'0 0.0
2018-Feb-17 01:28N 44°03' E 039°06'0 0.0
2018-Feb-17 00:58N 44°03' E 039°06'0 0.0
2018-Feb-17 00:28N 44°03' E 039°06'0 0.0
2018-Feb-16 23:58N 44°03' E 039°06'0 0.0
2018-Feb-16 23:28N 44°03' E 039°06'0 0.0
2018-Feb-16 22:58N 44°03' E 039°06'0 0.0
2018-Feb-16 22:28N 44°03' E 039°06'0 0.0
2018-Feb-16 21:58N 44°03' E 039°06'0 0.0
2018-Feb-16 21:28N 44°03' E 039°06'0 0.0
2018-Feb-16 20:58N 44°03' E 039°06'0 0.0
2018-Feb-16 20:28N 44°03' E 039°06'0 0.0
2018-Feb-16 19:58N 44°03' E 039°06'0 0.0
2018-Feb-16 19:28N 44°03' E 039°06'0 0.0
2018-Feb-16 18:58N 44°03' E 039°06'0 0.0
2018-Feb-16 18:28N 44°03' E 039°06'0 0.0
2018-Feb-16 17:58N 44°03' E 039°06'0 0.0
2018-Feb-16 17:28N 44°03' E 039°06'0 0.0
2018-Feb-16 16:58N 44°03' E 039°06'0 0.0
2018-Feb-16 16:25N 44°03' E 039°06'0 0.0
2018-Feb-16 15:58N 44°03' E 039°06'0 0.0
2018-Feb-16 15:28N 44°03' E 039°06'0 0.0
2018-Feb-16 14:58N 44°03' E 039°06'0 0.0
2018-Feb-16 14:28N 44°03' E 039°06'0 0.0
2018-Feb-16 13:58N 44°03' E 039°06'0 0.0
2018-Feb-16 13:28N 44°03' E 039°06'0 0.0
2018-Feb-16 12:58N 44°03' E 039°06'0 0.0
2018-Feb-16 12:28N 44°03' E 039°06'0 0.0
2018-Feb-16 11:58N 44°03' E 039°06'0 0.0
2018-Feb-16 11:28N 44°03' E 039°06'0 0.2
2018-Feb-16 10:58N 44°03' E 039°06'0 0.1
2018-Feb-16 10:28N 44°03' E 039°06'0 0.2
2018-Feb-16 09:58N 44°03' E 039°06'0 0.2
2018-Feb-16 09:28N 44°03' E 039°06'0 0.0
2018-Feb-16 08:58N 44°03' E 039°06'0 0.0
2018-Feb-16 08:28N 44°03' E 039°06'0 0.0
2018-Feb-16 07:58N 44°03' E 039°06'0 0.0
2018-Feb-16 07:28N 44°03' E 039°06'0 0.0
2018-Feb-16 06:58N 44°03' E 039°06'0 0.0
2018-Feb-16 06:28N 44°03' E 039°06'0 0.0
2018-Feb-16 05:58N 44°03' E 039°06'0 0.0
2018-Feb-16 05:28N 44°03' E 039°06'0 0.0
2018-Feb-16 04:52N 44°03' E 039°06'0 0.0
2018-Feb-16 04:28N 44°03' E 039°06'0 0.0
2018-Feb-16 03:58N 44°03' E 039°06'0 0.0
2018-Feb-16 03:28N 44°03' E 039°06'0 0.0
2018-Feb-16 02:58N 44°03' E 039°06'0 0.0
2018-Feb-16 02:28N 44°03' E 039°06'0 0.0
2018-Feb-16 01:58N 44°03' E 039°06'0 0.0
2018-Feb-16 01:28N 44°03' E 039°06'0 0.0
2018-Feb-16 00:58N 44°03' E 039°06'0 0.0
2018-Feb-16 00:28N 44°03' E 039°06'0 0.0
2018-Feb-15 23:58N 44°03' E 039°06'0 0.0
2018-Feb-15 23:28N 44°03' E 039°06'0 0.0
2018-Feb-15 22:58N 44°03' E 039°06'0 0.0
2018-Feb-15 22:28N 44°03' E 039°06'0 0.0
2018-Feb-15 21:58N 44°03' E 039°06'0 0.0
2018-Feb-15 21:28N 44°03' E 039°06'0 0.0
2018-Feb-15 20:58N 44°03' E 039°06'0 0.0
2018-Feb-15 20:28N 44°03' E 039°06'0 0.0
2018-Feb-15 19:58N 44°03' E 039°06'0 0.0
2018-Feb-15 19:28N 44°03' E 039°06'0 0.0
2018-Feb-15 18:58N 44°03' E 039°06'  

Dump ship's entire track history